sensor_id;sensor_type;location;lat;lon;timestamp;P1;durP1;ratioP1;P2;durP2;ratioP2
40707;SDS011;26392;42.696;23.350;2023-04-15T00:00:56;12.98;;;4.53;;
40707;SDS011;26392;42.696;23.350;2023-04-15T00:03:22;12.75;;;4.43;;
40707;SDS011;26392;42.696;23.350;2023-04-15T00:05:48;11.13;;;4.88;;
40707;SDS011;26392;42.696;23.350;2023-04-15T00:08:13;10.98;;;5.18;;
40707;SDS011;26392;42.696;23.350;2023-04-15T00:10:39;13.10;;;5.05;;
40707;SDS011;26392;42.696;23.350;2023-04-15T00:13:07;9.63;;;4.32;;
40707;SDS011;26392;42.696;23.350;2023-04-15T00:15:32;8.40;;;4.22;;
40707;SDS011;26392;42.696;23.350;2023-04-15T00:17:57;14.07;;;5.43;;
40707;SDS011;26392;42.696;23.350;2023-04-15T00:20:23;7.95;;;4.43;;
40707;SDS011;26392;42.696;23.350;2023-04-15T00:22:48;10.30;;;5.18;;
40707;SDS011;26392;42.696;23.350;2023-04-15T00:25:14;9.60;;;4.47;;
40707;SDS011;26392;42.696;23.350;2023-04-15T00:27:39;9.38;;;4.95;;
40707;SDS011;26392;42.696;23.350;2023-04-15T00:30:05;11.18;;;4.85;;
40707;SDS011;26392;42.696;23.350;2023-04-15T00:32:31;10.30;;;5.93;;
40707;SDS011;26392;42.696;23.350;2023-04-15T00:34:56;13.20;;;5.18;;
40707;SDS011;26392;42.696;23.350;2023-04-15T00:37:22;12.63;;;5.15;;
40707;SDS011;26392;42.696;23.350;2023-04-15T00:39:47;13.20;;;5.68;;
40707;SDS011;26392;42.696;23.350;2023-04-15T00:42:13;12.07;;;5.35;;
40707;SDS011;26392;42.696;23.350;2023-04-15T00:44:39;10.35;;;4.90;;
40707;SDS011;26392;42.696;23.350;2023-04-15T00:47:05;7.75;;;4.50;;
40707;SDS011;26392;42.696;23.350;2023-04-15T00:49:31;13.40;;;4.85;;
40707;SDS011;26392;42.696;23.350;2023-04-15T00:51:57;10.82;;;4.45;;
40707;SDS011;26392;42.696;23.350;2023-04-15T00:54:22;13.65;;;5.22;;
40707;SDS011;26392;42.696;23.350;2023-04-15T00:56:47;12.13;;;4.85;;
40707;SDS011;26392;42.696;23.350;2023-04-15T00:59:13;12.98;;;4.93;;
40707;SDS011;26392;42.696;23.350;2023-04-15T01:01:39;14.80;;;5.18;;
40707;SDS011;26392;42.696;23.350;2023-04-15T01:04:04;9.65;;;5.22;;
40707;SDS011;26392;42.696;23.350;2023-04-15T01:06:31;12.15;;;4.70;;
40707;SDS011;26392;42.696;23.350;2023-04-15T01:08:57;12.13;;;5.45;;
40707;SDS011;26392;42.696;23.350;2023-04-15T01:11:23;10.95;;;4.70;;
40707;SDS011;26392;42.696;23.350;2023-04-15T01:13:52;14.77;;;5.47;;
40707;SDS011;26392;42.696;23.350;2023-04-15T01:16:20;13.77;;;5.05;;
40707;SDS011;26392;42.696;23.350;2023-04-15T01:18:46;12.50;;;4.88;;
40707;SDS011;26392;42.696;23.350;2023-04-15T01:21:11;9.05;;;3.67;;
40707;SDS011;26392;42.696;23.350;2023-04-15T01:23:37;9.85;;;4.22;;
40707;SDS011;26392;42.696;23.350;2023-04-15T01:26:03;8.73;;;4.05;;
40707;SDS011;26392;42.696;23.350;2023-04-15T01:28:32;7.88;;;3.30;;
40707;SDS011;26392;42.696;23.350;2023-04-15T01:31:07;11.27;;;3.60;;
40707;SDS011;26392;42.696;23.350;2023-04-15T01:33:34;6.85;;;2.97;;
40707;SDS011;26392;42.696;23.350;2023-04-15T01:35:59;7.28;;;3.42;;
40707;SDS011;26392;42.696;23.350;2023-04-15T01:38:25;6.32;;;2.97;;
40707;SDS011;26392;42.696;23.350;2023-04-15T01:40:51;6.15;;;2.85;;
40707;SDS011;26392;42.696;23.350;2023-04-15T01:43:17;7.43;;;3.20;;
40707;SDS011;26392;42.696;23.350;2023-04-15T01:45:43;5.43;;;2.90;;
40707;SDS011;26392;42.696;23.350;2023-04-15T01:48:09;6.03;;;2.97;;
40707;SDS011;26392;42.696;23.350;2023-04-15T01:50:34;7.35;;;2.90;;
40707;SDS011;26392;42.696;23.350;2023-04-15T01:53:00;8.07;;;3.70;;
40707;SDS011;26392;42.696;23.350;2023-04-15T01:55:26;9.30;;;3.42;;
40707;SDS011;26392;42.696;23.350;2023-04-15T01:57:51;10.70;;;3.58;;
40707;SDS011;26392;42.696;23.350;2023-04-15T02:00:17;9.32;;;4.50;;
40707;SDS011;26392;42.696;23.350;2023-04-15T02:02:42;11.75;;;4.20;;
40707;SDS011;26392;42.696;23.350;2023-04-15T02:05:08;12.25;;;6.10;;
40707;SDS011;26392;42.696;23.350;2023-04-15T02:07:34;12.30;;;4.45;;
40707;SDS011;26392;42.696;23.350;2023-04-15T02:10:01;10.32;;;4.93;;
40707;SDS011;26392;42.696;23.350;2023-04-15T02:12:26;15.68;;;6.30;;
40707;SDS011;26392;42.696;23.350;2023-04-15T02:14:52;16.27;;;4.88;;
40707;SDS011;26392;42.696;23.350;2023-04-15T02:17:17;12.75;;;5.07;;
40707;SDS011;26392;42.696;23.350;2023-04-15T02:19:43;15.85;;;5.07;;
40707;SDS011;26392;42.696;23.350;2023-04-15T02:22:08;10.70;;;3.78;;
40707;SDS011;26392;42.696;23.350;2023-04-15T02:24:35;8.50;;;4.30;;
40707;SDS011;26392;42.696;23.350;2023-04-15T02:27:00;16.55;;;8.40;;
40707;SDS011;26392;42.696;23.350;2023-04-15T02:29:26;10.05;;;5.93;;
40707;SDS011;26392;42.696;23.350;2023-04-15T02:31:51;12.82;;;6.18;;
40707;SDS011;26392;42.696;23.350;2023-04-15T02:34:17;13.80;;;6.45;;
40707;SDS011;26392;42.696;23.350;2023-04-15T02:36:42;9.80;;;5.22;;
40707;SDS011;26392;42.696;23.350;2023-04-15T02:39:08;7.68;;;4.68;;
40707;SDS011;26392;42.696;23.350;2023-04-15T02:41:33;7.93;;;4.35;;
40707;SDS011;26392;42.696;23.350;2023-04-15T02:43:59;8.00;;;4.10;;
40707;SDS011;26392;42.696;23.350;2023-04-15T02:46:25;9.07;;;4.55;;
40707;SDS011;26392;42.696;23.350;2023-04-15T02:48:51;8.60;;;4.22;;
40707;SDS011;26392;42.696;23.350;2023-04-15T02:51:18;10.10;;;3.90;;
40707;SDS011;26392;42.696;23.350;2023-04-15T02:53:48;7.35;;;4.25;;
40707;SDS011;26392;42.696;23.350;2023-04-15T02:56:14;8.95;;;4.35;;
40707;SDS011;26392;42.696;23.350;2023-04-15T02:58:41;9.07;;;4.47;;
40707;SDS011;26392;42.696;23.350;2023-04-15T03:01:07;8.20;;;3.70;;
40707;SDS011;26392;42.696;23.350;2023-04-15T03:03:33;10.65;;;3.83;;
40707;SDS011;26392;42.696;23.350;2023-04-15T03:05:58;5.55;;;3.30;;
40707;SDS011;26392;42.696;23.350;2023-04-15T03:08:24;9.30;;;4.20;;
40707;SDS011;26392;42.696;23.350;2023-04-15T03:10:49;5.82;;;3.35;;
40707;SDS011;26392;42.696;23.350;2023-04-15T03:13:16;7.80;;;3.72;;
40707;SDS011;26392;42.696;23.350;2023-04-15T03:15:42;8.15;;;3.40;;
40707;SDS011;26392;42.696;23.350;2023-04-15T03:18:07;6.05;;;3.28;;
40707;SDS011;26392;42.696;23.350;2023-04-15T03:20:33;9.98;;;2.97;;
40707;SDS011;26392;42.696;23.350;2023-04-15T03:22:59;9.15;;;3.00;;
40707;SDS011;26392;42.696;23.350;2023-04-15T03:25:25;7.28;;;3.55;;
40707;SDS011;26392;42.696;23.350;2023-04-15T03:27:51;10.95;;;3.45;;
40707;SDS011;26392;42.696;23.350;2023-04-15T03:30:16;6.18;;;2.97;;
40707;SDS011;26392;42.696;23.350;2023-04-15T03:32:42;7.10;;;3.30;;
40707;SDS011;26392;42.696;23.350;2023-04-15T03:35:07;7.47;;;3.75;;
40707;SDS011;26392;42.696;23.350;2023-04-15T03:37:33;7.68;;;3.42;;
40707;SDS011;26392;42.696;23.350;2023-04-15T03:39:59;5.88;;;3.05;;
40707;SDS011;26392;42.696;23.350;2023-04-15T03:42:24;6.03;;;2.85;;
40707;SDS011;26392;42.696;23.350;2023-04-15T03:44:50;7.45;;;3.75;;
40707;SDS011;26392;42.696;23.350;2023-04-15T03:47:15;6.07;;;3.20;;
40707;SDS011;26392;42.696;23.350;2023-04-15T03:49:40;9.55;;;3.03;;
40707;SDS011;26392;42.696;23.350;2023-04-15T03:52:06;8.65;;;3.67;;
40707;SDS011;26392;42.696;23.350;2023-04-15T03:54:31;9.00;;;3.70;;
40707;SDS011;26392;42.696;23.350;2023-04-15T03:56:56;6.82;;;3.00;;
40707;SDS011;26392;42.696;23.350;2023-04-15T03:59:22;9.27;;;2.97;;
40707;SDS011;26392;42.696;23.350;2023-04-15T04:01:48;8.70;;;3.40;;
40707;SDS011;26392;42.696;23.350;2023-04-15T04:04:13;5.18;;;3.05;;
40707;SDS011;26392;42.696;23.350;2023-04-15T04:06:39;7.60;;;3.53;;
40707;SDS011;26392;42.696;23.350;2023-04-15T04:09:04;6.43;;;3.42;;
40707;SDS011;26392;42.696;23.350;2023-04-15T04:11:30;9.45;;;3.55;;
40707;SDS011;26392;42.696;23.350;2023-04-15T04:13:55;12.88;;;4.20;;
40707;SDS011;26392;42.696;23.350;2023-04-15T04:16:21;7.90;;;3.95;;
40707;SDS011;26392;42.696;23.350;2023-04-15T04:18:46;8.82;;;3.97;;
40707;SDS011;26392;42.696;23.350;2023-04-15T04:21:11;9.88;;;3.78;;
40707;SDS011;26392;42.696;23.350;2023-04-15T04:23:37;11.32;;;3.80;;
40707;SDS011;26392;42.696;23.350;2023-04-15T04:26:02;7.82;;;3.28;;
40707;SDS011;26392;42.696;23.350;2023-04-15T04:28:28;5.10;;;3.08;;
40707;SDS011;26392;42.696;23.350;2023-04-15T04:30:53;4.70;;;2.78;;
40707;SDS011;26392;42.696;23.350;2023-04-15T04:33:20;5.10;;;3.00;;
40707;SDS011;26392;42.696;23.350;2023-04-15T04:35:45;7.55;;;3.20;;
40707;SDS011;26392;42.696;23.350;2023-04-15T04:38:11;8.90;;;3.40;;
40707;SDS011;26392;42.696;23.350;2023-04-15T04:40:36;9.38;;;3.95;;
40707;SDS011;26392;42.696;23.350;2023-04-15T04:43:01;8.95;;;3.45;;
40707;SDS011;26392;42.696;23.350;2023-04-15T04:45:27;11.45;;;4.07;;
40707;SDS011;26392;42.696;23.350;2023-04-15T04:47:52;9.68;;;4.32;;
40707;SDS011;26392;42.696;23.350;2023-04-15T04:50:18;13.98;;;4.78;;
40707;SDS011;26392;42.696;23.350;2023-04-15T04:52:43;14.52;;;5.78;;
40707;SDS011;26392;42.696;23.350;2023-04-15T04:55:09;10.50;;;5.68;;
40707;SDS011;26392;42.696;23.350;2023-04-15T04:57:34;10.70;;;5.13;;
40707;SDS011;26392;42.696;23.350;2023-04-15T05:00:00;9.45;;;5.22;;
40707;SDS011;26392;42.696;23.350;2023-04-15T05:02:28;20.40;;;8.52;;
40707;SDS011;26392;42.696;23.350;2023-04-15T05:04:53;16.42;;;8.88;;
40707;SDS011;26392;42.696;23.350;2023-04-15T05:07:19;21.50;;;8.88;;
40707;SDS011;26392;42.696;23.350;2023-04-15T05:09:45;18.98;;;8.63;;
40707;SDS011;26392;42.696;23.350;2023-04-15T05:12:11;20.13;;;9.30;;
40707;SDS011;26392;42.696;23.350;2023-04-15T05:14:39;21.60;;;7.72;;
40707;SDS011;26392;42.696;23.350;2023-04-15T05:17:06;23.35;;;9.35;;
40707;SDS011;26392;42.696;23.350;2023-04-15T05:19:31;18.13;;;7.40;;
40707;SDS011;26392;42.696;23.350;2023-04-15T05:21:57;15.90;;;8.05;;
40707;SDS011;26392;42.696;23.350;2023-04-15T05:24:22;17.55;;;7.53;;
40707;SDS011;26392;42.696;23.350;2023-04-15T05:26:47;16.88;;;7.53;;
40707;SDS011;26392;42.696;23.350;2023-04-15T05:29:13;12.70;;;6.90;;
40707;SDS011;26392;42.696;23.350;2023-04-15T05:31:38;13.93;;;6.63;;
40707;SDS011;26392;42.696;23.350;2023-04-15T05:34:04;17.48;;;6.90;;
40707;SDS011;26392;42.696;23.350;2023-04-15T05:36:29;14.70;;;5.97;;
40707;SDS011;26392;42.696;23.350;2023-04-15T05:38:55;12.43;;;5.38;;
40707;SDS011;26392;42.696;23.350;2023-04-15T05:41:21;12.20;;;5.47;;
40707;SDS011;26392;42.696;23.350;2023-04-15T05:43:46;13.68;;;6.35;;
40707;SDS011;26392;42.696;23.350;2023-04-15T05:46:12;21.15;;;6.55;;
40707;SDS011;26392;42.696;23.350;2023-04-15T05:48:37;7.82;;;4.72;;
40707;SDS011;26392;42.696;23.350;2023-04-15T05:51:02;9.63;;;4.50;;
40707;SDS011;26392;42.696;23.350;2023-04-15T05:53:28;7.75;;;3.08;;
40707;SDS011;26392;42.696;23.350;2023-04-15T05:55:53;8.05;;;3.65;;
40707;SDS011;26392;42.696;23.350;2023-04-15T05:58:19;5.68;;;3.35;;
40707;SDS011;26392;42.696;23.350;2023-04-15T06:00:44;5.95;;;2.42;;
40707;SDS011;26392;42.696;23.350;2023-04-15T06:03:10;6.50;;;3.30;;
40707;SDS011;26392;42.696;23.350;2023-04-15T06:05:35;6.22;;;3.08;;
40707;SDS011;26392;42.696;23.350;2023-04-15T06:08:01;4.60;;;2.10;;
40707;SDS011;26392;42.696;23.350;2023-04-15T06:10:26;5.63;;;2.50;;
40707;SDS011;26392;42.696;23.350;2023-04-15T06:12:52;8.90;;;3.97;;
40707;SDS011;26392;42.696;23.350;2023-04-15T06:15:17;7.95;;;3.90;;
40707;SDS011;26392;42.696;23.350;2023-04-15T06:17:43;7.75;;;4.25;;
40707;SDS011;26392;42.696;23.350;2023-04-15T06:20:09;12.27;;;6.00;;
40707;SDS011;26392;42.696;23.350;2023-04-15T06:22:35;12.55;;;5.95;;
40707;SDS011;26392;42.696;23.350;2023-04-15T06:25:03;11.60;;;5.22;;
40707;SDS011;26392;42.696;23.350;2023-04-15T06:27:28;10.10;;;5.30;;
40707;SDS011;26392;42.696;23.350;2023-04-15T06:29:54;9.45;;;4.70;;
40707;SDS011;26392;42.696;23.350;2023-04-15T06:32:20;8.98;;;4.90;;
40707;SDS011;26392;42.696;23.350;2023-04-15T06:34:45;18.50;;;6.50;;
40707;SDS011;26392;42.696;23.350;2023-04-15T06:37:10;12.13;;;4.60;;
40707;SDS011;26392;42.696;23.350;2023-04-15T06:39:40;9.95;;;4.40;;
40707;SDS011;26392;42.696;23.350;2023-04-15T06:42:06;5.75;;;3.38;;
40707;SDS011;26392;42.696;23.350;2023-04-15T06:44:31;8.07;;;3.53;;
40707;SDS011;26392;42.696;23.350;2023-04-15T06:46:56;6.68;;;3.55;;
40707;SDS011;26392;42.696;23.350;2023-04-15T06:49:22;8.07;;;4.00;;
40707;SDS011;26392;42.696;23.350;2023-04-15T06:51:47;8.20;;;3.60;;
40707;SDS011;26392;42.696;23.350;2023-04-15T06:54:13;13.48;;;4.28;;
40707;SDS011;26392;42.696;23.350;2023-04-15T06:56:38;8.77;;;3.97;;
40707;SDS011;26392;42.696;23.350;2023-04-15T06:59:04;8.25;;;3.80;;
40707;SDS011;26392;42.696;23.350;2023-04-15T07:01:29;8.63;;;3.60;;
40707;SDS011;26392;42.696;23.350;2023-04-15T07:03:55;8.15;;;3.72;;
40707;SDS011;26392;42.696;23.350;2023-04-15T07:06:21;6.68;;;3.28;;
40707;SDS011;26392;42.696;23.350;2023-04-15T07:08:46;11.82;;;4.18;;
40707;SDS011;26392;42.696;23.350;2023-04-15T07:11:11;8.75;;;4.03;;
40707;SDS011;26392;42.696;23.350;2023-04-15T07:13:37;7.97;;;3.90;;
40707;SDS011;26392;42.696;23.350;2023-04-15T07:16:02;5.95;;;3.65;;
40707;SDS011;26392;42.696;23.350;2023-04-15T07:18:28;7.30;;;3.78;;
40707;SDS011;26392;42.696;23.350;2023-04-15T07:20:53;10.95;;;3.72;;
40707;SDS011;26392;42.696;23.350;2023-04-15T07:23:19;5.72;;;3.53;;
40707;SDS011;26392;42.696;23.350;2023-04-15T07:25:45;5.80;;;3.30;;
40707;SDS011;26392;42.696;23.350;2023-04-15T07:28:11;8.35;;;3.22;;
40707;SDS011;26392;42.696;23.350;2023-04-15T07:30:36;6.72;;;3.58;;
40707;SDS011;26392;42.696;23.350;2023-04-15T07:33:02;6.78;;;3.45;;
40707;SDS011;26392;42.696;23.350;2023-04-15T07:35:27;9.10;;;3.17;;
40707;SDS011;26392;42.696;23.350;2023-04-15T07:37:53;10.18;;;3.65;;
40707;SDS011;26392;42.696;23.350;2023-04-15T07:40:18;8.60;;;3.22;;
40707;SDS011;26392;42.696;23.350;2023-04-15T07:42:44;5.72;;;3.55;;
40707;SDS011;26392;42.696;23.350;2023-04-15T07:45:09;5.60;;;2.95;;
40707;SDS011;26392;42.696;23.350;2023-04-15T07:47:35;12.27;;;4.00;;
40707;SDS011;26392;42.696;23.350;2023-04-15T07:50:01;6.50;;;3.08;;
40707;SDS011;26392;42.696;23.350;2023-04-15T07:52:26;6.35;;;3.10;;
40707;SDS011;26392;42.696;23.350;2023-04-15T07:54:52;7.85;;;3.65;;
40707;SDS011;26392;42.696;23.350;2023-04-15T07:57:17;5.88;;;3.35;;
40707;SDS011;26392;42.696;23.350;2023-04-15T07:59:43;7.38;;;3.50;;
40707;SDS011;26392;42.696;23.350;2023-04-15T08:02:09;6.18;;;2.95;;
40707;SDS011;26392;42.696;23.350;2023-04-15T08:04:35;6.18;;;3.38;;
40707;SDS011;26392;42.696;23.350;2023-04-15T08:07:00;7.22;;;3.45;;
40707;SDS011;26392;42.696;23.350;2023-04-15T08:09:26;7.03;;;2.85;;
40707;SDS011;26392;42.696;23.350;2023-04-15T08:11:51;6.57;;;2.90;;
40707;SDS011;26392;42.696;23.350;2023-04-15T08:14:17;6.70;;;3.40;;
40707;SDS011;26392;42.696;23.350;2023-04-15T08:16:42;5.53;;;3.05;;
40707;SDS011;26392;42.696;23.350;2023-04-15T08:19:08;6.97;;;3.10;;
40707;SDS011;26392;42.696;23.350;2023-04-15T08:21:33;7.18;;;3.03;;
40707;SDS011;26392;42.696;23.350;2023-04-15T08:23:59;5.57;;;2.50;;
40707;SDS011;26392;42.696;23.350;2023-04-15T08:26:25;3.72;;;2.60;;
40707;SDS011;26392;42.696;23.350;2023-04-15T08:28:51;7.88;;;3.20;;
40707;SDS011;26392;42.696;23.350;2023-04-15T08:31:16;7.72;;;3.20;;
40707;SDS011;26392;42.696;23.350;2023-04-15T08:33:43;8.95;;;3.00;;
40707;SDS011;26392;42.696;23.350;2023-04-15T08:36:08;7.25;;;4.07;;
40707;SDS011;26392;42.696;23.350;2023-04-15T08:38:34;8.60;;;2.70;;
40707;SDS011;26392;42.696;23.350;2023-04-15T08:41:06;8.73;;;2.97;;
40707;SDS011;26392;42.696;23.350;2023-04-15T08:43:40;3.78;;;2.70;;
40707;SDS011;26392;42.696;23.350;2023-04-15T08:46:21;10.02;;;3.35;;
40707;SDS011;26392;42.696;23.350;2023-04-15T08:48:47;6.28;;;2.63;;
40707;SDS011;26392;42.696;23.350;2023-04-15T08:51:13;5.93;;;2.40;;
40707;SDS011;26392;42.696;23.350;2023-04-15T08:53:43;9.18;;;3.42;;
40707;SDS011;26392;42.696;23.350;2023-04-15T08:56:11;6.80;;;3.00;;
40707;SDS011;26392;42.696;23.350;2023-04-15T08:58:39;4.72;;;2.50;;
40707;SDS011;26392;42.696;23.350;2023-04-15T09:01:06;8.55;;;3.40;;
40707;SDS011;26392;42.696;23.350;2023-04-15T09:03:31;6.13;;;2.40;;
40707;SDS011;26392;42.696;23.350;2023-04-15T09:05:57;4.47;;;2.92;;
40707;SDS011;26392;42.696;23.350;2023-04-15T09:08:23;3.08;;;2.10;;
40707;SDS011;26392;42.696;23.350;2023-04-15T09:10:49;3.83;;;2.25;;
40707;SDS011;26392;42.696;23.350;2023-04-15T09:13:15;9.10;;;2.22;;
40707;SDS011;26392;42.696;23.350;2023-04-15T09:15:40;4.35;;;2.20;;
40707;SDS011;26392;42.696;23.350;2023-04-15T09:18:06;3.35;;;1.55;;
40707;SDS011;26392;42.696;23.350;2023-04-15T09:20:41;4.15;;;2.10;;
40707;SDS011;26392;42.696;23.350;2023-04-15T09:23:13;4.00;;;1.98;;
40707;SDS011;26392;42.696;23.350;2023-04-15T09:25:39;6.38;;;1.80;;
40707;SDS011;26392;42.696;23.350;2023-04-15T09:28:08;2.25;;;1.33;;
40707;SDS011;26392;42.696;23.350;2023-04-15T09:30:35;2.45;;;1.35;;
40707;SDS011;26392;42.696;23.350;2023-04-15T09:33:01;4.97;;;1.75;;
40707;SDS011;26392;42.696;23.350;2023-04-15T09:35:32;3.45;;;1.83;;
40707;SDS011;26392;42.696;23.350;2023-04-15T09:38:07;4.38;;;1.67;;
40707;SDS011;26392;42.696;23.350;2023-04-15T09:40:35;4.05;;;1.67;;
40707;SDS011;26392;42.696;23.350;2023-04-15T09:43:06;4.22;;;1.60;;
40707;SDS011;26392;42.696;23.350;2023-04-15T09:45:33;3.72;;;1.42;;
40707;SDS011;26392;42.696;23.350;2023-04-15T09:50:49;1.60;;;1.35;;
40707;SDS011;26392;42.696;23.350;2023-04-15T09:53:16;1.67;;;1.42;;
40707;SDS011;26392;42.696;23.350;2023-04-15T09:58:21;4.72;;;1.23;;
40707;SDS011;26392;42.696;23.350;2023-04-15T10:00:49;2.30;;;1.02;;
40707;SDS011;26392;42.696;23.350;2023-04-15T10:03:22;4.60;;;1.50;;
40707;SDS011;26392;42.696;23.350;2023-04-15T10:05:52;8.70;;;1.35;;
40707;SDS011;26392;42.696;23.350;2023-04-15T10:08:23;2.58;;;1.30;;
40707;SDS011;26392;42.696;23.350;2023-04-15T10:10:51;4.00;;;1.70;;
40707;SDS011;26392;42.696;23.350;2023-04-15T10:13:19;9.35;;;1.70;;
40707;SDS011;26392;42.696;23.350;2023-04-15T10:16:31;3.50;;;1.45;;
40707;SDS011;26392;42.696;23.350;2023-04-15T10:18:37;5.82;;;1.20;;
40707;SDS011;26392;42.696;23.350;2023-04-15T10:21:05;2.38;;;1.20;;
40707;SDS011;26392;42.696;23.350;2023-04-15T10:23:32;2.28;;;1.25;;
40707;SDS011;26392;42.696;23.350;2023-04-15T10:25:58;5.68;;;1.40;;
40707;SDS011;26392;42.696;23.350;2023-04-15T10:28:24;4.75;;;1.42;;
40707;SDS011;26392;42.696;23.350;2023-04-15T10:30:51;1.63;;;1.00;;
40707;SDS011;26392;42.696;23.350;2023-04-15T10:33:18;3.00;;;1.33;;
40707;SDS011;26392;42.696;23.350;2023-04-15T10:35:45;4.00;;;1.60;;
40707;SDS011;26392;42.696;23.350;2023-04-15T10:44:05;2.35;;;1.20;;
40707;SDS011;26392;42.696;23.350;2023-04-15T10:46:36;3.60;;;1.50;;
40707;SDS011;26392;42.696;23.350;2023-04-15T10:51:45;1.80;;;1.00;;
40707;SDS011;26392;42.696;23.350;2023-04-15T10:54:16;2.53;;;0.90;;
40707;SDS011;26392;42.696;23.350;2023-04-15T10:59:30;2.25;;;1.02;;
40707;SDS011;26392;42.696;23.350;2023-04-15T11:02:15;1.60;;;1.00;;
40707;SDS011;26392;42.696;23.350;2023-04-15T11:04:51;1.90;;;0.98;;
40707;SDS011;26392;42.696;23.350;2023-04-15T11:12:42;3.28;;;1.00;;
40707;SDS011;26392;42.696;23.350;2023-04-15T11:18:08;2.88;;;0.90;;
40707;SDS011;26392;42.696;23.350;2023-04-15T11:20:37;1.60;;;1.10;;
40707;SDS011;26392;42.696;23.350;2023-04-15T11:23:04;2.88;;;1.10;;
40707;SDS011;26392;42.696;23.350;2023-04-15T11:25:31;3.97;;;1.42;;
40707;SDS011;26392;42.696;23.350;2023-04-15T11:27:59;2.38;;;1.20;;
40707;SDS011;26392;42.696;23.350;2023-04-15T11:30:27;4.13;;;1.30;;
40707;SDS011;26392;42.696;23.350;2023-04-15T11:32:58;1.40;;;0.93;;
40707;SDS011;26392;42.696;23.350;2023-04-15T11:35:28;4.53;;;0.90;;
40707;SDS011;26392;42.696;23.350;2023-04-15T11:37:54;2.10;;;1.23;;
40707;SDS011;26392;42.696;23.350;2023-04-15T11:40:23;1.88;;;1.20;;
40707;SDS011;26392;42.696;23.350;2023-04-15T11:43:08;1.33;;;1.13;;
40707;SDS011;26392;42.696;23.350;2023-04-15T11:45:56;3.85;;;1.25;;
40707;SDS011;26392;42.696;23.350;2023-04-15T11:48:24;1.30;;;1.00;;
40707;SDS011;26392;42.696;23.350;2023-04-15T11:50:54;3.03;;;1.10;;
40707;SDS011;26392;42.696;23.350;2023-04-15T11:53:24;1.80;;;1.02;;
40707;SDS011;26392;42.696;23.350;2023-04-15T11:56:01;2.63;;;1.58;;
40707;SDS011;26392;42.696;23.350;2023-04-15T11:58:28;3.35;;;1.15;;
40707;SDS011;26392;42.696;23.350;2023-04-15T12:00:55;2.17;;;0.95;;
40707;SDS011;26392;42.696;23.350;2023-04-15T12:03:26;2.78;;;1.10;;
40707;SDS011;26392;42.696;23.350;2023-04-15T12:11:29;1.13;;;0.60;;
40707;SDS011;26392;42.696;23.350;2023-04-15T12:16:53;2.72;;;0.90;;
40707;SDS011;26392;42.696;23.350;2023-04-15T12:19:30;1.65;;;0.90;;
40707;SDS011;26392;42.696;23.350;2023-04-15T12:22:03;1.08;;;0.90;;
40707;SDS011;26392;42.696;23.350;2023-04-15T12:24:37;2.65;;;1.00;;
40707;SDS011;26392;42.696;23.350;2023-04-15T12:29:30;1.67;;;1.00;;
40707;SDS011;26392;42.696;23.350;2023-04-15T12:32:03;1.05;;;0.93;;
40707;SDS011;26392;42.696;23.350;2023-04-15T12:34:52;1.52;;;1.00;;
40707;SDS011;26392;42.696;23.350;2023-04-15T12:37:17;5.22;;;1.10;;
40707;SDS011;26392;42.696;23.350;2023-04-15T12:39:43;1.17;;;0.90;;
40707;SDS011;26392;42.696;23.350;2023-04-15T12:42:10;2.70;;;1.08;;
40707;SDS011;26392;42.696;23.350;2023-04-15T12:44:36;1.00;;;0.88;;
40707;SDS011;26392;42.696;23.350;2023-04-15T12:47:03;1.85;;;0.98;;
40707;SDS011;26392;42.696;23.350;2023-04-15T12:49:29;2.00;;;0.80;;
40707;SDS011;26392;42.696;23.350;2023-04-15T12:51:55;1.15;;;0.90;;
40707;SDS011;26392;42.696;23.350;2023-04-15T12:54:23;0.75;;;0.70;;
40707;SDS011;26392;42.696;23.350;2023-04-15T12:56:49;1.13;;;0.80;;
40707;SDS011;26392;42.696;23.350;2023-04-15T12:59:15;0.70;;;0.70;;
40707;SDS011;26392;42.696;23.350;2023-04-15T13:01:42;3.60;;;0.90;;
40707;SDS011;26392;42.696;23.350;2023-04-15T13:04:08;1.60;;;0.63;;
40707;SDS011;26392;42.696;23.350;2023-04-15T13:06:33;1.40;;;1.10;;
40707;SDS011;26392;42.696;23.350;2023-04-15T13:08:59;2.45;;;0.80;;
40707;SDS011;26392;42.696;23.350;2023-04-15T13:11:25;2.28;;;0.85;;
40707;SDS011;26392;42.696;23.350;2023-04-15T13:13:54;1.77;;;0.90;;
40707;SDS011;26392;42.696;23.350;2023-04-15T13:16:20;2.67;;;0.80;;
40707;SDS011;26392;42.696;23.350;2023-04-15T13:18:47;2.17;;;0.93;;
40707;SDS011;26392;42.696;23.350;2023-04-15T13:21:13;1.60;;;0.70;;
40707;SDS011;26392;42.696;23.350;2023-04-15T13:23:39;0.68;;;0.60;;
40707;SDS011;26392;42.696;23.350;2023-04-15T13:26:05;0.70;;;0.70;;
40707;SDS011;26392;42.696;23.350;2023-04-15T13:28:32;0.60;;;0.60;;
40707;SDS011;26392;42.696;23.350;2023-04-15T13:30:58;0.60;;;0.60;;
40707;SDS011;26392;42.696;23.350;2023-04-15T13:33:24;1.00;;;0.75;;
40707;SDS011;26392;42.696;23.350;2023-04-15T13:35:49;1.52;;;0.68;;
40707;SDS011;26392;42.696;23.350;2023-04-15T13:38:15;0.50;;;0.50;;
40707;SDS011;26392;42.696;23.350;2023-04-15T13:40:40;1.58;;;0.93;;
40707;SDS011;26392;42.696;23.350;2023-04-15T13:43:06;0.63;;;0.60;;
40707;SDS011;26392;42.696;23.350;2023-04-15T13:45:31;1.80;;;0.70;;
40707;SDS011;26392;42.696;23.350;2023-04-15T13:47:57;3.28;;;0.75;;
40707;SDS011;26392;42.696;23.350;2023-04-15T13:50:23;2.42;;;0.80;;
40707;SDS011;26392;42.696;23.350;2023-04-15T13:52:48;1.63;;;0.90;;
40707;SDS011;26392;42.696;23.350;2023-04-15T13:55:14;0.63;;;0.60;;
40707;SDS011;26392;42.696;23.350;2023-04-15T13:57:39;1.50;;;0.90;;
40707;SDS011;26392;42.696;23.350;2023-04-15T14:00:05;16.60;;;1.48;;
40707;SDS011;26392;42.696;23.350;2023-04-15T14:02:31;0.85;;;0.70;;
40707;SDS011;26392;42.696;23.350;2023-04-15T14:04:57;2.00;;;0.82;;
40707;SDS011;26392;42.696;23.350;2023-04-15T14:07:22;2.90;;;0.80;;
40707;SDS011;26392;42.696;23.350;2023-04-15T14:09:48;0.57;;;0.57;;
40707;SDS011;26392;42.696;23.350;2023-04-15T14:12:13;0.77;;;0.63;;
40707;SDS011;26392;42.696;23.350;2023-04-15T14:14:39;1.45;;;1.00;;
40707;SDS011;26392;42.696;23.350;2023-04-15T14:17:05;1.88;;;0.60;;
40707;SDS011;26392;42.696;23.350;2023-04-15T14:19:31;2.38;;;0.90;;
40707;SDS011;26392;42.696;23.350;2023-04-15T14:21:57;2.17;;;1.00;;
40707;SDS011;26392;42.696;23.350;2023-04-15T14:24:23;8.73;;;0.90;;
40707;SDS011;26392;42.696;23.350;2023-04-15T14:26:48;3.97;;;0.95;;
40707;SDS011;26392;42.696;23.350;2023-04-15T14:29:14;0.82;;;0.60;;
40707;SDS011;26392;42.696;23.350;2023-04-15T14:31:39;1.38;;;0.70;;
40707;SDS011;26392;42.696;23.350;2023-04-15T14:34:05;0.90;;;0.80;;
40707;SDS011;26392;42.696;23.350;2023-04-15T14:36:30;3.25;;;0.90;;
40707;SDS011;26392;42.696;23.350;2023-04-15T14:38:56;1.00;;;0.70;;
40707;SDS011;26392;42.696;23.350;2023-04-15T14:41:22;2.10;;;0.80;;
40707;SDS011;26392;42.696;23.350;2023-04-15T14:43:47;3.35;;;0.90;;
40707;SDS011;26392;42.696;23.350;2023-04-15T14:46:13;1.65;;;0.70;;
40707;SDS011;26392;42.696;23.350;2023-04-15T14:48:38;0.73;;;0.50;;
40707;SDS011;26392;42.696;23.350;2023-04-15T14:51:05;0.80;;;0.80;;
40707;SDS011;26392;42.696;23.350;2023-04-15T14:53:30;0.73;;;0.70;;
40707;SDS011;26392;42.696;23.350;2023-04-15T14:55:56;0.80;;;0.80;;
40707;SDS011;26392;42.696;23.350;2023-04-15T14:58:21;1.40;;;0.70;;
40707;SDS011;26392;42.696;23.350;2023-04-15T15:00:47;1.85;;;0.85;;
40707;SDS011;26392;42.696;23.350;2023-04-15T15:03:12;1.00;;;0.70;;